Time;durP1;ratioP1;P1;durP2;ratioP2;P2;SDS_P1;SDS_P2;PMS_P1;PMS_P2;Temp;Humidity;BMP_temperature;BMP_pressure;BME280_temperature;BME280_humidity;BME280_pressure;Samples;Min_cycle;Max_cycle;Signal;HPM_P1;HPM_P2
2023/08/05 00:01:26;;;;;;;0.10;0.10;;;13.40;99.90;;;;;;5112204;27;20120;-69
2023/08/05 00:03:52;;;;;;;0.20;0.20;;;13.40;99.90;;;;;;5115256;27;20485;-69
2023/08/05 00:06:17;;;;;;;0.70;0.70;;;13.40;99.90;;;;;;5109324;27;20035;-69
2023/08/05 00:08:43;;;;;;;0.20;0.20;;;13.40;99.90;;;;;;5106854;28;20031;-69
2023/08/05 00:11:09;;;;;;;0.65;0.13;;;13.40;99.90;;;;;;5109862;27;20444;-68
2023/08/05 00:13:35;;;;;;;0.28;0.28;;;13.40;99.90;;;;;;5112698;27;20039;-68
2023/08/05 00:16:07;;;;;;;2.15;1.05;;;13.40;99.90;;;;;;5107058;27;20165;-69
2023/08/05 00:18:33;;;;;;;;;;;13.40;99.90;;;;;;5108842;27;20122;-69
2023/08/05 00:20:58;;;;;;;0.32;0.32;;;13.30;99.90;;;;;;5132767;27;20018;-69
2023/08/05 00:23:24;;;;;;;0.65;0.63;;;13.20;99.90;;;;;;5136225;27;20082;-69
2023/08/05 00:25:52;;;;;;;1.00;0.52;;;13.20;99.90;;;;;;5121147;27;20035;-69
2023/08/05 00:28:18;;;;;;;0.95;0.90;;;13.20;99.90;;;;;;5100231;27;20087;-69
2023/08/05 00:30:44;;;;;;;0.50;0.50;;;13.10;99.90;;;;;;5134055;27;20035;-69
2023/08/05 00:33:09;;;;;;;0.60;0.40;;;13.10;99.90;;;;;;5104688;27;20047;-69
2023/08/05 00:35:38;;;;;;;0.20;0.20;;;13.00;99.90;;;;;;5108088;27;20035;-69
2023/08/05 00:38:03;;;;;;;1.58;0.50;;;13.00;99.90;;;;;;5107878;27;20326;-69
2023/08/05 00:40:29;;;;;;;0.90;0.30;;;13.00;99.90;;;;;;5115330;27;20118;-69
2023/08/05 00:42:55;;;;;;;0.20;0.20;;;13.00;99.90;;;;;;5106198;27;20249;-69
2023/08/05 00:45:20;;;;;;;1.13;1.02;;;13.00;99.90;;;;;;5106267;27;20035;-69
2023/08/05 00:47:46;;;;;;;0.47;0.40;;;12.90;99.90;;;;;;5113505;27;20110;-69
2023/08/05 00:50:14;;;;;;;0.10;0.10;;;12.90;99.90;;;;;;5121775;27;20069;-69
2023/08/05 00:52:41;;;;;;;2.22;0.30;;;12.80;99.90;;;;;;5101525;27;20429;-68
2023/08/05 00:55:07;;;;;;;1.25;0.98;;;12.90;99.90;;;;;;5101443;27;20043;-69
2023/08/05 00:57:34;;;;;;;0.43;0.40;;;12.90;99.90;;;;;;5131831;27;20045;-69
2023/08/05 00:59:59;;;;;;;0.38;0.20;;;12.90;99.90;;;;;;5136742;27;20490;-69
2023/08/05 01:02:25;;;;;;;0.65;0.52;;;12.80;99.90;;;;;;5102554;27;20035;-69
2023/08/05 01:04:50;;;;;;;0.20;0.20;;;12.80;99.90;;;;;;5105730;27;20039;-69
2023/08/05 01:07:20;;;;;;;0.20;0.15;;;12.80;99.90;;;;;;5101370;28;20062;-69
2023/08/05 01:09:45;;;;;;;3.03;0.70;;;12.80;99.90;;;;;;5135211;27;20401;-69
2023/08/05 01:12:11;;;;;;;0.52;0.43;;;12.80;99.90;;;;;;5137199;27;20027;-69
2023/08/05 01:14:36;;;;;;;0.13;0.13;;;12.80;99.90;;;;;;5106629;28;20589;-70
2023/08/05 01:17:02;;;;;;;1.15;0.22;;;12.80;99.90;;;;;;5091111;27;20050;-70
2023/08/05 01:19:29;;;;;;;0.65;0.65;;;12.80;99.90;;;;;;5108507;27;20377;-70
2023/08/05 01:22:00;;;;;;;4.38;0.50;;;12.80;99.90;;;;;;5104850;28;20047;-70
2023/08/05 01:24:44;;;;;;;1.27;0.75;;;12.90;99.90;;;;;;5105495;28;20101;-70
2023/08/05 01:27:10;;;;;;;0.95;0.82;;;12.90;99.90;;;;;;5109891;28;20108;-70
2023/08/05 01:29:36;;;;;;;0.47;0.47;;;12.80;99.90;;;;;;5100599;28;20032;-70
2023/08/05 01:32:03;;;;;;;0.57;0.57;;;12.80;99.90;;;;;;5100510;28;20092;-69
2023/08/05 01:34:30;;;;;;;0.30;0.30;;;12.80;99.90;;;;;;5099561;28;20581;-69
2023/08/05 01:36:56;;;;;;;1.17;0.47;;;12.80;99.90;;;;;;5109201;28;20214;-70
2023/08/05 01:39:21;;;;;;;0.50;0.30;;;12.80;99.90;;;;;;5109255;28;20129;-70
2023/08/05 01:41:47;;;;;;;0.40;0.30;;;12.80;99.90;;;;;;5104823;28;20042;-70
2023/08/05 01:44:13;;;;;;;0.40;0.35;;;12.70;99.90;;;;;;5109242;28;20571;-70
2023/08/05 01:46:38;;;;;;;0.45;0.30;;;12.70;99.90;;;;;;5108419;28;20043;-70
2023/08/05 01:49:04;;;;;;;0.22;0.22;;;12.70;99.90;;;;;;5096256;28;20035;-70
2023/08/05 01:51:30;;;;;;;0.38;0.17;;;12.70;99.90;;;;;;5101464;28;20122;-70
2023/08/05 01:53:55;;;;;;;2.40;0.45;;;12.70;99.90;;;;;;5104768;28;20035;-70
2023/08/05 01:56:21;;;;;;;0.10;0.10;;;12.70;99.90;;;;;;5103411;28;20043;-70
2023/08/05 01:58:46;;;;;;;0.10;0.10;;;12.70;99.90;;;;;;5102858;28;20073;-70
2023/08/05 02:01:12;;;;;;;0.25;0.25;;;12.70;99.90;;;;;;5102036;28;20037;-70
2023/08/05 02:03:37;;;;;;;0.63;0.47;;;12.60;99.90;;;;;;5107663;28;20043;-70
2023/08/05 02:06:03;;;;;;;0.22;0.22;;;12.70;99.90;;;;;;5106965;28;20555;-70
2023/08/05 02:08:29;;;;;;;1.08;0.40;;;12.60;99.90;;;;;;5102537;28;20047;-70
2023/08/05 02:10:54;;;;;;;0.35;0.20;;;12.60;99.90;;;;;;5107744;28;20043;-70
2023/08/05 02:13:20;;;;;;;0.77;0.77;;;12.60;99.90;;;;;;5110433;28;20374;-71
2023/08/05 02:15:45;;;;;;;0.40;0.30;;;12.60;99.90;;;;;;5105868;28;20046;-70
2023/08/05 02:18:11;;;;;;;0.50;0.38;;;12.60;99.90;;;;;;5104974;28;20036;-70
2023/08/05 02:20:36;;;;;;;0.55;0.30;;;12.60;99.90;;;;;;5134013;27;20031;-70
2023/08/05 02:23:02;;;;;;;5.70;0.63;;;12.60;99.90;;;;;;5102675;28;20035;-71
2023/08/05 02:25:28;;;;;;;0.80;0.40;;;12.60;99.90;;;;;;5107286;28;20023;-71
2023/08/05 02:27:53;;;;;;;0.52;0.52;;;12.70;99.90;;;;;;5104285;28;20055;-70
2023/08/05 02:30:19;;;;;;;0.15;0.15;;;12.70;99.90;;;;;;5106941;28;20061;-70
2023/08/05 02:32:44;;;;;;;1.65;0.73;;;12.70;99.90;;;;;;5102312;28;20130;-70
2023/08/05 02:35:10;;;;;;;1.00;0.95;;;12.70;99.90;;;;;;5115644;28;20043;-70
2023/08/05 02:37:36;;;;;;;0.30;0.30;;;12.70;99.90;;;;;;5112555;27;20081;-70
2023/08/05 02:40:01;;;;;;;2.00;0.50;;;12.70;99.90;;;;;;5102606;27;20596;-70
2023/08/05 02:42:27;;;;;;;1.13;0.43;;;12.80;99.90;;;;;;5108605;27;20389;-70
2023/08/05 02:44:53;;;;;;;0.10;0.10;;;12.80;99.90;;;;;;5141346;27;20031;-70
2023/08/05 02:47:19;;;;;;;0.25;0.25;;;12.80;99.90;;;;;;5110690;27;20397;-70
2023/08/05 02:49:45;;;;;;;2.47;0.10;;;12.80;99.90;;;;;;5106191;27;20034;-70
2023/08/05 02:52:10;;;;;;;0.10;0.10;;;12.90;99.90;;;;;;5107479;27;20123;-70
2023/08/05 02:54:36;;;;;;;0.03;0.03;;;12.90;99.90;;;;;;5116820;27;20040;-70
2023/08/05 02:57:01;;;;;;;0.20;0.20;;;12.90;99.90;;;;;;5103832;27;20504;-70
2023/08/05 02:59:28;;;;;;;0.10;0.10;;;12.90;99.90;;;;;;5109293;27;20050;-69
2023/08/05 03:01:53;;;;;;;0.50;0.50;;;12.90;99.90;;;;;;5141441;27;20039;-70
2023/08/05 03:04:19;;;;;;;0.10;0.10;;;12.90;99.90;;;;;;5107547;27;20032;-70
2023/08/05 03:06:44;;;;;;;0.50;0.50;;;12.90;99.90;;;;;;5102333;27;20040;-70
2023/08/05 03:09:10;;;;;;;0.75;0.20;;;12.90;99.90;;;;;;5109293;27;20040;-70
2023/08/05 03:11:36;;;;;;;0.52;0.43;;;12.90;99.90;;;;;;5141079;27;20054;-70
2023/08/05 03:14:02;;;;;;;0.38;0.28;;;12.90;99.90;;;;;;5108089;27;20039;-70
2023/08/05 03:16:27;;;;;;;1.15;0.40;;;12.90;99.90;;;;;;5141776;27;20532;-70
2023/08/05 03:18:53;;;;;;;0.68;0.68;;;12.90;99.90;;;;;;5105912;28;20173;-70
2023/08/05 03:21:19;;;;;;;0.30;0.30;;;12.90;99.90;;;;;;5138306;27;20039;-69
2023/08/05 03:23:44;;;;;;;0.10;0.10;;;12.80;99.90;;;;;;5105120;27;20043;-70
2023/08/05 03:26:10;;;;;;;0.57;0.50;;;12.90;99.90;;;;;;5118882;27;20042;-70
2023/08/05 03:28:35;;;;;;;1.10;0.52;;;12.80;99.90;;;;;;5142860;27;20062;-70
2023/08/05 03:31:02;;;;;;;0.40;0.40;;;12.90;99.90;;;;;;5101854;27;20030;-70
2023/08/05 03:33:27;;;;;;;0.10;0.10;;;12.90;99.90;;;;;;5108147;27;20035;-69
2023/08/05 03:35:54;;;;;;;0.22;0.22;;;12.90;99.90;;;;;;5107333;27;20099;-69
2023/08/05 03:38:20;;;;;;;0.10;0.10;;;12.90;99.90;;;;;;5108306;28;20047;-69
2023/08/05 03:40:45;;;;;;;0.50;0.50;;;12.90;99.90;;;;;;5112194;27;20043;-69
2023/08/05 03:43:11;;;;;;;0.10;0.10;;;12.90;99.90;;;;;;5127357;27;20510;-69
2023/08/05 03:45:37;;;;;;;0.20;0.20;;;12.90;99.90;;;;;;5111212;27;20070;-70
2023/08/05 03:48:02;;;;;;;0.10;0.10;;;13.00;99.90;;;;;;5108357;27;20447;-69
2023/08/05 03:50:28;;;;;;;0.30;0.30;;;13.00;99.90;;;;;;5112372;27;20043;-69
2023/08/05 03:52:55;;;;;;;0.10;0.10;;;13.00;99.90;;;;;;5114240;27;20056;-69
2023/08/05 03:55:21;;;;;;;0.30;0.15;;;13.00;99.90;;;;;;5108836;28;20078;-69
2023/08/05 03:57:47;;;;;;;0.10;0.10;;;13.00;99.90;;;;;;5114986;27;20042;-69
2023/08/05 04:00:13;;;;;;;0.20;0.20;;;13.00;99.90;;;;;;5107810;27;20039;-69
2023/08/05 04:02:40;;;;;;;0.10;0.10;;;13.00;99.90;;;;;;5118546;27;20111;-69
2023/08/05 04:05:06;;;;;;;1.00;1.00;;;13.10;99.90;;;;;;5116450;27;20043;-69
2023/08/05 04:07:31;;;;;;;0.10;0.10;;;13.10;99.90;;;;;;5104422;27;20118;-69
2023/08/05 04:10:03;;;;;;;3.97;0.40;;;13.10;99.90;;;;;;5113449;27;20042;-70
2023/08/05 04:12:29;;;;;;;0.30;0.30;;;13.10;99.90;;;;;;5112604;27;20042;-69
2023/08/05 04:14:58;;;;;;;5.90;0.85;;;13.10;99.90;;;;;;5107808;27;20134;-69
2023/08/05 04:17:25;;;;;;;0.10;0.10;;;13.10;99.90;;;;;;5087987;27;20130;-69
2023/08/05 04:19:50;;;;;;;1.10;0.57;;;13.20;99.90;;;;;;5105296;27;20427;-69
2023/08/05 04:22:20;;;;;;;0.10;0.10;;;13.20;99.90;;;;;;5113537;27;20517;-70
2023/08/05 04:24:46;;;;;;;1.60;0.28;;;13.20;99.90;;;;;;5111428;27;20043;-70
2023/08/05 04:27:12;;;;;;;0.10;0.10;;;13.20;99.90;;;;;;5101830;27;20031;-69
2023/08/05 04:29:37;;;;;;;0.35;0.10;;;13.20;99.90;;;;;;5111083;27;20035;-70
2023/08/05 04:32:03;;;;;;;0.20;0.20;;;13.30;99.90;;;;;;5109055;27;20035;-69
2023/08/05 04:34:35;;;;;;;0.10;0.10;;;13.30;99.90;;;;;;5103505;27;20489;-69
2023/08/05 04:37:15;;;;;;;0.20;0.17;;;13.30;99.90;;;;;;5110700;27;20138;-69
2023/08/05 04:39:41;;;;;;;0.08;0.08;;;13.40;99.90;;;;;;5101844;27;20074;-70
2023/08/05 04:42:06;;;;;;;0.17;0.17;;;13.40;99.90;;;;;;5111047;27;20074;-69
2023/08/05 04:44:32;;;;;;;0.10;0.10;;;13.50;99.90;;;;;;5101980;27;20035;-69
2023/08/05 04:46:58;;;;;;;0.00;0.00;;;13.50;99.90;;;;;;5115411;27;20035;-70
2023/08/05 04:49:23;;;;;;;0.00;0.00;;;13.60;99.90;;;;;;5109804;27;20035;-70
2023/08/05 04:51:49;;;;;;;0.10;0.10;;;13.60;99.90;;;;;;5115853;27;20378;-69
2023/08/05 04:54:16;;;;;;;0.10;0.10;;;13.70;99.90;;;;;;5111065;27;20039;-70
2023/08/05 04:56:42;;;;;;;0.00;0.00;;;13.70;99.90;;;;;;5098158;28;20478;-69
2023/08/05 04:59:07;;;;;;;0.28;0.10;;;13.70;99.90;;;;;;5153144;27;20035;-69
2023/08/05 05:01:33;;;;;;;0.25;0.25;;;13.80;99.90;;;;;;5096389;27;20408;-70
2023/08/05 05:03:58;;;;;;;0.38;0.38;;;13.90;99.90;;;;;;5108040;27;20027;-68
2023/08/05 05:06:34;;;;;;;0.03;0.03;;;13.90;99.90;;;;;;5112737;27;20050;-69
2023/08/05 05:09:00;;;;;;;0.20;0.10;;;14.00;99.90;;;;;;5113565;27;20427;-70
2023/08/05 05:11:25;;;;;;;0.10;0.10;;;14.10;99.90;;;;;;5102972;27;20048;-70
2023/08/05 05:13:57;;;;;;;0.10;0.10;;;14.10;99.90;;;;;;5090174;28;20406;-69
2023/08/05 05:16:23;;;;;;;0.00;0.00;;;14.20;99.90;;;;;;5103859;27;20104;-70
2023/08/05 05:18:48;;;;;;;0.13;0.13;;;14.30;99.90;;;;;;5132394;27;20494;-70
2023/08/05 05:21:14;;;;;;;0.32;0.32;;;14.40;99.90;;;;;;5095482;28;20130;-70
2023/08/05 05:23:40;;;;;;;0.40;0.10;;;14.50;99.90;;;;;;5102861;28;20480;-69
2023/08/05 05:26:06;;;;;;;0.10;0.10;;;14.60;99.90;;;;;;5120598;28;20043;-70
2023/08/05 05:28:32;;;;;;;1.27;1.00;;;14.60;99.90;;;;;;5111795;28;20393;-70
2023/08/05 05:31:02;;;;;;;0.22;0.22;;;14.60;99.90;;;;;;5099944;28;20043;-70
2023/08/05 05:33:28;;;;;;;0.10;0.10;;;14.50;99.90;;;;;;5095544;28;20039;-70
2023/08/05 05:35:53;;;;;;;0.10;0.10;;;14.50;99.90;;;;;;5124543;28;20087;-69
2023/08/05 05:38:19;;;;;;;0.10;0.10;;;14.50;99.90;;;;;;5115584;28;20103;-69
2023/08/05 05:40:45;;;;;;;3.38;1.42;;;14.50;99.90;;;;;;5109864;28;20062;-69
2023/08/05 05:43:11;;;;;;;0.20;0.20;;;14.50;99.90;;;;;;5102315;28;20038;-69
2023/08/05 05:45:37;;;;;;;0.00;0.00;;;14.60;99.90;;;;;;5111377;28;20490;-69
2023/08/05 05:48:03;;;;;;;0.10;0.10;;;14.60;99.90;;;;;;5119644;28;20397;-69
2023/08/05 05:50:29;;;;;;;0.10;0.10;;;14.70;99.90;;;;;;5129977;27;20092;-69
2023/08/05 05:53:04;;;;;;;0.30;0.30;;;14.70;99.90;;;;;;5081666;28;20035;-69
2023/08/05 05:55:32;;;;;;;0.45;0.20;;;14.80;99.90;;;;;;5104355;28;20035;-69
2023/08/05 05:57:58;;;;;;;1.27;0.20;;;15.00;99.90;;;;;;5119249;28;20398;-69
2023/08/05 06:00:23;;;;;;;0.00;0.00;;;15.10;99.90;;;;;;5125608;27;20039;-69
2023/08/05 06:02:49;;;;;;;0.43;0.43;;;15.30;99.90;;;;;;5115234;28;20035;-69
2023/08/05 06:05:15;;;;;;;0.20;0.20;;;15.50;99.90;;;;;;5113279;28;20042;-69
2023/08/05 06:07:40;;;;;;;0.20;0.15;;;15.60;99.90;;;;;;5114510;28;20039;-69
2023/08/05 06:10:06;;;;;;;0.20;0.20;;;15.80;99.90;;;;;;5114897;28;20027;-69
2023/08/05 06:12:37;;;;;;;0.13;0.10;;;15.80;99.90;;;;;;5117598;27;20035;-69
2023/08/05 06:15:07;;;;;;;0.20;0.20;;;15.90;99.90;;;;;;5118442;27;20489;-69
2023/08/05 06:17:32;;;;;;;0.10;0.10;;;16.00;99.90;;;;;;5118413;27;20071;-70
2023/08/05 06:19:58;;;;;;;0.10;0.10;;;16.10;99.90;;;;;;5119203;27;20070;-69
2023/08/05 06:22:24;;;;;;;0.40;0.13;;;16.10;99.90;;;;;;5119152;27;20450;-69
2023/08/05 06:24:50;;;;;;;0.35;0.30;;;16.00;99.90;;;;;;5118785;27;20389;-69
2023/08/05 06:27:17;;;;;;;0.45;0.32;;;16.00;99.90;;;;;;5119309;27;20051;-69
2023/08/05 06:29:43;;;;;;;0.32;0.28;;;15.90;99.90;;;;;;5118570;27;20031;-69
2023/08/05 06:32:08;;;;;;;0.10;0.10;;;15.90;99.90;;;;;;5113302;27;20059;-69
2023/08/05 06:34:34;;;;;;;0.10;0.10;;;15.90;99.90;;;;;;5118660;27;20038;-68
2023/08/05 06:36:59;;;;;;;0.10;0.10;;;15.80;99.90;;;;;;5118736;27;20043;-69
2023/08/05 06:39:42;;;;;;;0.30;0.30;;;15.80;99.90;;;;;;5105591;27;20055;-69
2023/08/05 06:42:08;;;;;;;0.20;0.20;;;15.70;99.90;;;;;;5116014;27;20047;-69
2023/08/05 06:44:37;;;;;;;0.30;0.30;;;15.70;99.90;;;;;;5098012;28;20110;-69
2023/08/05 06:47:06;;;;;;;0.28;0.25;;;15.70;99.90;;;;;;5109035;27;20050;-69
2023/08/05 06:49:32;;;;;;;0.40;0.40;;;15.70;99.90;;;;;;5118237;27;20036;-69
2023/08/05 06:51:57;;;;;;;0.35;0.35;;;15.70;99.90;;;;;;5118029;27;20035;-69
2023/08/05 06:54:23;;;;;;;1.15;0.15;;;15.80;99.90;;;;;;5116475;27;20350;-69
2023/08/05 06:56:50;;;;;;;0.77;0.30;;;15.90;99.90;;;;;;5121718;27;20042;-69
2023/08/05 06:59:21;;;;;;;0.50;0.50;;;16.00;99.90;;;;;;5133472;27;20494;-69
2023/08/05 07:01:47;;;;;;;0.75;0.40;;;16.10;99.90;;;;;;5118979;27;20478;-68
2023/08/05 07:04:14;;;;;;;0.25;0.20;;;16.10;99.90;;;;;;5104232;27;20035;-68
2023/08/05 07:06:40;;;;;;;0.52;0.25;;;16.20;99.90;;;;;;5129362;27;20038;-68
2023/08/05 07:09:05;;;;;;;0.65;0.60;;;16.10;99.90;;;;;;5110297;27;20500;-68
2023/08/05 07:11:31;;;;;;;0.25;0.25;;;16.10;99.90;;;;;;5109558;27;20043;-69
2023/08/05 07:13:57;;;;;;;1.00;0.65;;;16.10;99.90;;;;;;5103625;27;20043;-69
2023/08/05 07:16:22;;;;;;;1.30;0.20;;;16.20;99.90;;;;;;5109062;27;20058;-69
2023/08/05 07:18:49;;;;;;;0.52;0.28;;;16.20;99.90;;;;;;5109935;27;20036;-68
2023/08/05 07:21:17;;;;;;;3.42;0.43;;;16.40;99.90;;;;;;5107595;27;20504;-68
2023/08/05 07:23:43;;;;;;;0.28;0.28;;;16.50;99.90;;;;;;5133697;27;20390;-69
2023/08/05 07:26:08;;;;;;;0.85;0.17;;;16.60;99.90;;;;;;5113979;27;20039;-68
2023/08/05 07:28:34;;;;;;;0.10;0.10;;;16.60;99.90;;;;;;5118210;27;20382;-68
2023/08/05 07:31:10;;;;;;;0.28;0.28;;;16.70;99.90;;;;;;5109853;27;20051;-68
2023/08/05 07:33:35;;;;;;;0.38;0.38;;;16.70;99.90;;;;;;5105100;27;20043;-69
2023/08/05 07:36:11;;;;;;;0.10;0.10;;;16.90;99.90;;;;;;5110826;27;20050;-68
2023/08/05 07:38:40;;;;;;;0.13;0.13;;;17.00;99.90;;;;;;5113623;27;20421;-68
2023/08/05 07:41:06;;;;;;;0.57;0.57;;;17.10;99.90;;;;;;5099194;27;20047;-68
2023/08/05 07:43:36;;;;;;;0.95;0.57;;;17.20;99.90;;;;;;5120324;27;20042;-67
2023/08/05 07:46:06;;;;;;;0.35;0.35;;;17.20;99.90;;;;;;5091131;27;20046;-68
2023/08/05 07:48:37;;;;;;;1.55;0.43;;;17.30;99.90;;;;;;5113248;27;20042;-68
2023/08/05 07:51:06;;;;;;;0.10;0.10;;;17.20;99.90;;;;;;5101106;27;20169;-68
2023/08/05 07:53:36;;;;;;;0.20;0.20;;;17.30;99.90;;;;;;5112823;27;20043;-68
2023/08/05 07:56:12;;;;;;;0.13;0.13;;;17.20;99.90;;;;;;5102115;27;20043;-68
2023/08/05 07:58:46;;;;;;;0.17;0.17;;;17.20;99.90;;;;;;5105565;27;20089;-69
2023/08/05 08:01:21;;;;;;;0.35;0.35;;;17.20;99.90;;;;;;5101945;27;20398;-68
2023/08/05 08:03:48;;;;;;;0.43;0.40;;;17.30;99.90;;;;;;5088825;27;20067;-68
2023/08/05 08:06:15;;;;;;;2.38;2.17;;;17.30;99.90;;;;;;5100104;27;20595;-68
2023/08/05 08:08:44;;;;;;;0.20;0.20;;;17.30;99.90;;;;;;5103390;27;20031;-68
2023/08/05 08:11:10;;;;;;;0.03;0.03;;;17.40;99.90;;;;;;5107415;27;20047;-68
2023/08/05 08:13:37;;;;;;;1.85;0.77;;;17.40;99.90;;;;;;5105599;27;20035;-67
2023/08/05 08:16:03;;;;;;;0.10;0.10;;;17.50;99.90;;;;;;5134707;27;20048;-67
2023/08/05 08:18:28;;;;;;;0.10;0.10;;;17.50;99.90;;;;;;5117326;27;20047;-68
2023/08/05 08:20:54;;;;;;;0.03;0.03;;;17.50;99.90;;;;;;5100454;27;20035;-68
2023/08/05 08:23:19;;;;;;;1.70;0.93;;;17.60;99.90;;;;;;5101387;27;20446;-68
2023/08/05 08:25:45;;;;;;;0.10;0.10;;;17.60;99.90;;;;;;5101834;27;20173;-67
2023/08/05 08:28:11;;;;;;;0.10;0.10;;;17.70;99.90;;;;;;5100234;27;20039;-68
2023/08/05 08:30:36;;;;;;;0.10;0.10;;;17.70;99.90;;;;;;5117113;27;20122;-68
2023/08/05 08:33:03;;;;;;;0.03;0.03;;;17.80;99.90;;;;;;5102960;27;21416;-68
2023/08/05 08:35:29;;;;;;;1.13;0.30;;;17.80;99.90;;;;;;5130314;27;20043;-68
2023/08/05 08:37:54;;;;;;;0.40;0.40;;;17.90;99.90;;;;;;5106469;27;20046;-68
2023/08/05 08:40:20;;;;;;;0.10;0.10;;;18.00;99.90;;;;;;5106765;27;20035;-68
2023/08/05 08:42:47;;;;;;;0.17;0.17;;;18.20;99.90;;;;;;5102464;27;20023;-68
2023/08/05 08:45:15;;;;;;;0.98;0.98;;;18.30;99.90;;;;;;5107783;27;20042;-67
2023/08/05 08:47:41;;;;;;;0.40;0.40;;;18.40;99.90;;;;;;5106479;28;20043;-68
2023/08/05 08:50:08;;;;;;;0.10;0.10;;;18.50;99.90;;;;;;5105878;27;20136;-67
2023/08/05 08:52:35;;;;;;;0.63;0.47;;;18.60;99.90;;;;;;5111176;27;20435;-67
2023/08/05 08:55:03;;;;;;;0.10;0.10;;;18.70;99.90;;;;;;5113612;27;20031;-67
2023/08/05 08:57:29;;;;;;;1.17;0.85;;;18.80;99.90;;;;;;5104516;28;20363;-67
2023/08/05 08:59:55;;;;;;;0.30;0.20;;;18.80;99.90;;;;;;5101480;27;20046;-67
2023/08/05 09:02:24;;;;;;;0.52;0.30;;;18.90;99.90;;;;;;5108293;27;20048;-67
2023/08/05 09:04:53;;;;;;;0.20;0.20;;;19.00;99.90;;;;;;5102584;28;20119;-67
2023/08/05 09:07:25;;;;;;;0.82;0.77;;;19.10;99.90;;;;;;5102323;27;20032;-68
2023/08/05 09:09:51;;;;;;;7.53;0.70;;;19.20;99.90;;;;;;5103443;28;20040;-67
2023/08/05 09:12:16;;;;;;;0.50;0.50;;;19.40;99.90;;;;;;5109604;28;20050;-67
2023/08/05 09:14:42;;;;;;;1.25;0.65;;;19.40;99.90;;;;;;5113612;27;20067;-67
2023/08/05 09:17:08;;;;;;;0.63;0.63;;;19.40;99.90;;;;;;5099926;27;20490;-67
2023/08/05 09:19:33;;;;;;;0.43;0.43;;;19.50;99.90;;;;;;5104918;28;20205;-68
2023/08/05 09:22:05;;;;;;;0.40;0.38;;;19.60;99.90;;;;;;5110163;27;20050;-68
2023/08/05 09:24:30;;;;;;;1.15;0.40;;;19.70;99.90;;;;;;5104202;28;20036;-68
2023/08/05 09:26:58;;;;;;;0.30;0.25;;;19.90;99.90;;;;;;5119086;28;20023;-68
2023/08/05 09:29:25;;;;;;;0.43;0.32;;;20.00;99.90;;;;;;5100689;28;20437;-68
2023/08/05 09:31:58;;;;;;;1.13;0.95;;;20.00;99.90;;;;;;5102332;28;20406;-68
2023/08/05 09:34:37;;;;;;;1.95;1.80;;;20.00;99.90;;;;;;5105425;28;20386;-68
2023/08/05 09:37:06;;;;;;;0.65;0.63;;;19.90;99.90;;;;;;5104088;28;20039;-68
2023/08/05 09:39:50;;;;;;;0.30;0.30;;;19.80;99.90;;;;;;5104843;28;20039;-68
2023/08/05 09:42:27;;;;;;;0.60;0.60;;;19.90;99.90;;;;;;5101484;28;20070;-67
2023/08/05 09:44:55;;;;;;;0.75;0.75;;;20.00;99.90;;;;;;5098268;28;20040;-68
2023/08/05 09:47:27;;;;;;;0.32;0.30;;;20.00;99.90;;;;;;5111861;27;20027;-68
2023/08/05 09:49:53;;;;;;;0.80;0.57;;;20.10;99.90;;;;;;5097744;28;20047;-68
2023/08/05 09:52:23;;;;;;;0.85;0.65;;;20.10;99.90;;;;;;5103222;27;20389;-68
2023/08/05 09:55:15;;;;;;;1.15;1.15;;;20.10;99.90;;;;;;5114092;27;20071;-68
2023/08/05 09:57:42;;;;;;;0.60;0.60;;;20.10;99.90;;;;;;5116132;27;20109;-69
2023/08/05 10:00:11;;;;;;;1.08;0.55;;;20.10;99.90;;;;;;5104599;27;20141;-68
2023/08/05 10:02:41;;;;;;;0.35;0.35;;;20.10;99.90;;;;;;5102190;27;20032;-68
2023/08/05 10:05:09;;;;;;;1.35;1.05;;;20.10;99.90;;;;;;5123973;27;20370;-68
2023/08/05 10:07:41;;;;;;;2.83;0.20;;;20.20;99.90;;;;;;5109340;27;20804;-69
2023/08/05 10:10:13;;;;;;;1.25;1.13;;;20.30;99.90;;;;;;5114231;27;20119;-68
2023/08/05 10:12:56;;;;;;;5.95;1.55;;;20.50;99.90;;;;;;5089280;28;20043;-68
2023/08/05 10:15:37;;;;;;;2.80;1.20;;;20.70;99.90;;;;;;5143261;27;20050;-68
2023/08/05 10:18:08;;;;;;;1.05;0.50;;;20.90;99.90;;;;;;5129554;27;20123;-69
2023/08/05 10:20:35;;;;;;;0.63;0.50;;;21.00;99.90;;;;;;5110884;27;20126;-68
2023/08/05 10:23:09;;;;;;;1.50;1.40;;;21.10;99.90;;;;;;5108433;27;20027;-68
2023/08/05 10:25:40;;;;;;;0.85;0.50;;;21.10;99.90;;;;;;5103562;27;20784;-68
2023/08/05 10:28:31;;;;;;;1.17;0.98;;;21.00;99.90;;;;;;5103399;27;20079;-69
2023/08/05 10:30:57;;;;;;;1.55;0.65;;;21.00;99.90;;;;;;5117917;27;20047;-68
2023/08/05 10:33:24;;;;;;;3.33;1.08;;;21.00;99.90;;;;;;5108300;27;20485;-68
2023/08/05 10:35:59;;;;;;;1.77;0.65;;;21.00;99.90;;;;;;5105770;27;20116;-68
2023/08/05 10:38:25;;;;;;;3.25;1.42;;;21.00;99.90;;;;;;5110524;27;20049;-69
2023/08/05 10:41:02;;;;;;;1.85;1.52;;;21.00;99.90;;;;;;5103700;28;20541;-69
2023/08/05 10:43:31;;;;;;;11.00;1.27;;;21.00;99.90;;;;;;5138342;27;20044;-68
2023/08/05 10:46:06;;;;;;;3.88;1.38;;;21.00;99.90;;;;;;5095902;27;20046;-68
2023/08/05 10:48:38;;;;;;;0.68;0.68;;;20.90;99.90;;;;;;5100430;27;20073;-69
2023/08/05 10:51:25;;;;;;;2.78;1.05;;;20.70;99.90;;;;;;5100135;27;20116;-69
2023/08/05 10:53:50;;;;;;;3.15;1.30;;;20.50;99.90;;;;;;5099500;27;20127;-74
2023/08/05 10:56:16;;;;;;;0.57;0.50;;;20.10;99.90;;;;;;5092298;27;20048;-74
2023/08/05 10:58:49;;;;;;;0.65;0.65;;;19.80;99.90;;;;;;5098747;27;20114;-75
2023/08/05 11:01:16;;;;;;;0.68;0.68;;;19.50;99.90;;;;;;5093536;27;20559;-74
2023/08/05 11:03:52;;;;;;;1.83;0.57;;;19.40;99.90;;;;;;5094340;27;20039;-73
2023/08/05 11:06:25;;;;;;;1.42;0.95;;;19.30;99.90;;;;;;5095658;27;20418;-74
2023/08/05 11:08:51;;;;;;;1.08;0.60;;;19.40;99.90;;;;;;5095651;27;20084;-75
2023/08/05 11:11:18;;;;;;;7.05;2.55;;;19.50;99.90;;;;;;5099653;27;20037;-75
2023/08/05 11:13:46;;;;;;;2.45;1.42;;;19.50;99.90;;;;;;5097936;27;20086;-77
2023/08/05 11:16:11;;;;;;;0.75;0.75;;;19.60;99.90;;;;;;5117434;27;20051;-77
2023/08/05 11:18:43;;;;;;;1.75;0.57;;;19.70;99.90;;;;;;5095212;27;20040;-77
2023/08/05 11:21:10;;;;;;;3.53;1.92;;;19.80;99.90;;;;;;5100448;27;20564;-76
2023/08/05 11:23:44;;;;;;;5.55;2.05;;;19.90;99.90;;;;;;5084249;27;20071;-76
2023/08/05 11:26:10;;;;;;;1.08;1.00;;;20.00;99.90;;;;;;5112918;27;20280;-74
2023/08/05 11:28:41;;;;;;;0.52;0.43;;;20.10;99.90;;;;;;5083502;27;20031;-74
2023/08/05 11:31:07;;;;;;;0.55;0.55;;;20.20;99.90;;;;;;5101988;27;20589;-73
2023/08/05 11:33:32;;;;;;;4.68;1.83;;;20.30;99.90;;;;;;5130031;27;20500;-72
2023/08/05 11:35:58;;;;;;;0.65;0.40;;;20.30;99.90;;;;;;5113090;27;20400;-72
2023/08/05 11:38:24;;;;;;;0.88;0.85;;;20.40;99.90;;;;;;5116597;27;20043;-72
2023/08/05 11:40:57;;;;;;;0.93;0.38;;;20.40;99.90;;;;;;5103493;27;20050;-72
2023/08/05 11:43:23;;;;;;;2.55;0.60;;;20.40;99.90;;;;;;5094846;28;20386;-73
2023/08/05 11:45:50;;;;;;;1.13;1.02;;;20.40;99.90;;;;;;5102707;27;20043;-73
2023/08/05 11:48:28;;;;;;;1.55;0.60;;;20.30;99.90;;;;;;5100299;27;20035;-74
2023/08/05 11:51:03;;;;;;;0.35;0.35;;;20.40;99.90;;;;;;5113658;27;20043;-73
2023/08/05 11:53:31;;;;;;;2.88;2.00;;;20.50;99.90;;;;;;5098136;27;20036;-77
2023/08/05 11:55:56;;;;;;;1.10;0.95;;;20.50;99.90;;;;;;5127153;27;20035;-76
2023/08/05 11:58:26;;;;;;;1.85;1.23;;;20.40;99.90;;;;;;5114662;27;20185;-77
2023/08/05 12:00:57;;;;;;;0.65;0.60;;;20.40;99.90;;;;;;5105893;27;20082;-76
2023/08/05 12:03:23;;;;;;;0.40;0.40;;;20.30;99.90;;;;;;5117223;27;20031;-75
2023/08/05 12:05:48;;;;;;;0.85;0.75;;;20.20;99.90;;;;;;5106310;27;20047;-77
2023/08/05 12:08:42;;;;;;;0.52;0.45;;;20.20;99.90;;;;;;5113114;27;20042;-78
2023/08/05 12:11:08;;;;;;;0.63;0.55;;;20.10;99.90;;;;;;5099044;27;20068;-75
2023/08/05 12:13:34;;;;;;;1.95;0.60;;;20.10;99.90;;;;;;5099970;27;20039;-74
2023/08/05 12:16:12;;;;;;;0.65;0.65;;;20.00;99.90;;;;;;5101505;27;20093;-79
2023/08/05 12:18:43;;;;;;;2.25;1.40;;;20.00;99.90;;;;;;5116874;27;20054;-77
2023/08/05 12:21:08;;;;;;;2.63;0.32;;;20.00;99.90;;;;;;5095873;27;20110;-75
2023/08/05 12:23:40;;;;;;;0.93;0.50;;;20.00;99.90;;;;;;5117313;27;20116;-73
2023/08/05 12:26:06;;;;;;;;;;;20.10;99.90;;;;;;5107565;28;20040;-72
2023/08/05 12:28:31;;;;;;;0.45;0.45;;;20.20;99.90;;;;;;5099107;28;20397;-70
2023/08/05 12:30:57;;;;;;;0.47;0.30;;;20.20;99.90;;;;;;5105818;27;20481;-76
2023/08/05 12:33:23;;;;;;;2.40;0.60;;;20.30;99.90;;;;;;5113731;27;20038;-75
2023/08/05 12:35:48;;;;;;;1.85;0.38;;;20.40;99.90;;;;;;5116699;27;20038;-72
2023/08/05 12:38:17;;;;;;;0.30;0.30;;;20.40;99.90;;;;;;5140642;27;20031;-72
2023/08/05 12:40:43;;;;;;;0.38;0.38;;;20.40;99.90;;;;;;5084105;28;20043;-72
2023/08/05 12:43:09;;;;;;;0.95;0.40;;;20.30;99.90;;;;;;5104857;27;20053;-73
2023/08/05 12:45:35;;;;;;;0.20;0.20;;;20.30;99.90;;;;;;5127921;27;20106;-72
2023/08/05 12:48:01;;;;;;;0.70;0.30;;;20.30;99.90;;;;;;5129927;27;20106;-72
2023/08/05 12:50:27;;;;;;;1.15;0.80;;;20.20;99.90;;;;;;5079356;28;20131;-73